sensor_id;sensor_type;location;lat;lon;timestamp;P1;durP1;ratioP1;P2;durP2;ratioP2
2338;SDS011;1180;51.438;6.978;2022-12-18T00:03:52;4.55;;;3.72;;
2338;SDS011;1180;51.438;6.978;2022-12-18T00:06:18;6.32;;;4.15;;
2338;SDS011;1180;51.438;6.978;2022-12-18T00:08:44;6.20;;;4.68;;
2338;SDS011;1180;51.438;6.978;2022-12-18T00:11:11;6.00;;;3.80;;
2338;SDS011;1180;51.438;6.978;2022-12-18T00:13:38;6.57;;;4.13;;
2338;SDS011;1180;51.438;6.978;2022-12-18T00:16:07;5.20;;;3.97;;
2338;SDS011;1180;51.438;6.978;2022-12-18T00:18:35;6.97;;;4.22;;
2338;SDS011;1180;51.438;6.978;2022-12-18T00:21:02;6.00;;;3.77;;
2338;SDS011;1180;51.438;6.978;2022-12-18T00:23:29;7.30;;;4.85;;
2338;SDS011;1180;51.438;6.978;2022-12-18T00:25:58;10.77;;;5.38;;
2338;SDS011;1180;51.438;6.978;2022-12-18T00:28:35;6.43;;;4.13;;
2338;SDS011;1180;51.438;6.978;2022-12-18T00:31:01;7.63;;;4.37;;
2338;SDS011;1180;51.438;6.978;2022-12-18T00:33:31;5.93;;;4.25;;
2338;SDS011;1180;51.438;6.978;2022-12-18T00:36:04;7.50;;;5.30;;
2338;SDS011;1180;51.438;6.978;2022-12-18T00:38:34;8.55;;;5.88;;
2338;SDS011;1180;51.438;6.978;2022-12-18T00:41:00;6.70;;;5.32;;
2338;SDS011;1180;51.438;6.978;2022-12-18T00:43:26;11.00;;;8.43;;
2338;SDS011;1180;51.438;6.978;2022-12-18T00:45:52;13.63;;;7.10;;
2338;SDS011;1180;51.438;6.978;2022-12-18T00:48:17;9.20;;;6.20;;
2338;SDS011;1180;51.438;6.978;2022-12-18T00:50:43;14.13;;;6.67;;
2338;SDS011;1180;51.438;6.978;2022-12-18T00:53:11;10.80;;;7.47;;
2338;SDS011;1180;51.438;6.978;2022-12-18T00:55:37;11.15;;;6.57;;
2338;SDS011;1180;51.438;6.978;2022-12-18T00:58:04;9.68;;;7.03;;
2338;SDS011;1180;51.438;6.978;2022-12-18T01:00:29;11.13;;;6.90;;
2338;SDS011;1180;51.438;6.978;2022-12-18T01:02:54;10.20;;;6.40;;
2338;SDS011;1180;51.438;6.978;2022-12-18T01:05:20;8.60;;;6.43;;
2338;SDS011;1180;51.438;6.978;2022-12-18T01:07:45;7.27;;;5.47;;
2338;SDS011;1180;51.438;6.978;2022-12-18T01:10:11;7.80;;;5.47;;
2338;SDS011;1180;51.438;6.978;2022-12-18T01:12:37;6.68;;;4.85;;
2338;SDS011;1180;51.438;6.978;2022-12-18T01:15:02;7.77;;;5.10;;
2338;SDS011;1180;51.438;6.978;2022-12-18T01:17:28;6.00;;;4.03;;
2338;SDS011;1180;51.438;6.978;2022-12-18T01:19:54;5.53;;;4.03;;
2338;SDS011;1180;51.438;6.978;2022-12-18T01:22:19;3.83;;;3.43;;
2338;SDS011;1180;51.438;6.978;2022-12-18T01:24:44;11.20;;;4.50;;
2338;SDS011;1180;51.438;6.978;2022-12-18T01:27:09;6.93;;;3.77;;
2338;SDS011;1180;51.438;6.978;2022-12-18T01:29:35;4.90;;;3.20;;
2338;SDS011;1180;51.438;6.978;2022-12-18T01:32:00;5.50;;;4.53;;
2338;SDS011;1180;51.438;6.978;2022-12-18T01:34:25;6.37;;;3.97;;
2338;SDS011;1180;51.438;6.978;2022-12-18T01:36:51;4.10;;;3.37;;
2338;SDS011;1180;51.438;6.978;2022-12-18T01:39:17;5.03;;;3.73;;
2338;SDS011;1180;51.438;6.978;2022-12-18T01:41:43;4.80;;;3.60;;
2338;SDS011;1180;51.438;6.978;2022-12-18T01:50:11;7.63;;;5.35;;
2338;SDS011;1180;51.438;6.978;2022-12-18T01:52:50;7.03;;;4.50;;
2338;SDS011;1180;51.438;6.978;2022-12-18T01:55:19;6.07;;;4.10;;
2338;SDS011;1180;51.438;6.978;2022-12-18T01:57:47;4.90;;;3.70;;
2338;SDS011;1180;51.438;6.978;2022-12-18T02:00:14;7.18;;;4.60;;
2338;SDS011;1180;51.438;6.978;2022-12-18T02:02:44;4.63;;;3.95;;
2338;SDS011;1180;51.438;6.978;2022-12-18T02:05:10;6.18;;;3.92;;
2338;SDS011;1180;51.438;6.978;2022-12-18T02:10:20;6.57;;;4.28;;
2338;SDS011;1180;51.438;6.978;2022-12-18T02:15:54;5.00;;;4.20;;
2338;SDS011;1180;51.438;6.978;2022-12-18T02:18:50;7.10;;;4.15;;
2338;SDS011;1180;51.438;6.978;2022-12-18T02:26:46;5.50;;;3.70;;
2338;SDS011;1180;51.438;6.978;2022-12-18T02:29:34;5.25;;;4.10;;
2338;SDS011;1180;51.438;6.978;2022-12-18T02:32:10;6.40;;;4.75;;
2338;SDS011;1180;51.438;6.978;2022-12-18T02:34:40;5.75;;;4.15;;
2338;SDS011;1180;51.438;6.978;2022-12-18T02:37:07;8.05;;;3.95;;
2338;SDS011;1180;51.438;6.978;2022-12-18T02:39:38;4.45;;;3.60;;
2338;SDS011;1180;51.438;6.978;2022-12-18T02:42:06;5.10;;;4.00;;
2338;SDS011;1180;51.438;6.978;2022-12-18T02:44:33;7.93;;;4.45;;
2338;SDS011;1180;51.438;6.978;2022-12-18T02:47:00;5.00;;;3.80;;
2338;SDS011;1180;51.438;6.978;2022-12-18T02:55:34;6.30;;;4.50;;
2338;SDS011;1180;51.438;6.978;2022-12-18T03:00:51;9.23;;;5.57;;
2338;SDS011;1180;51.438;6.978;2022-12-18T03:03:33;7.80;;;4.55;;
2338;SDS011;1180;51.438;6.978;2022-12-18T03:06:06;8.23;;;5.22;;
2338;SDS011;1180;51.438;6.978;2022-12-18T03:08:42;6.22;;;4.65;;
2338;SDS011;1180;51.438;6.978;2022-12-18T03:11:12;7.38;;;5.00;;
2338;SDS011;1180;51.438;6.978;2022-12-18T03:13:46;6.22;;;5.28;;
2338;SDS011;1180;51.438;6.978;2022-12-18T03:16:22;7.75;;;5.22;;
2338;SDS011;1180;51.438;6.978;2022-12-18T03:18:52;7.55;;;4.97;;
2338;SDS011;1180;51.438;6.978;2022-12-18T03:21:23;6.13;;;4.43;;
2338;SDS011;1180;51.438;6.978;2022-12-18T03:24:02;8.70;;;4.35;;
2338;SDS011;1180;51.438;6.978;2022-12-18T03:26:32;5.00;;;4.05;;
2338;SDS011;1180;51.438;6.978;2022-12-18T03:29:02;7.75;;;4.95;;
2338;SDS011;1180;51.438;6.978;2022-12-18T03:31:31;5.38;;;4.30;;
2338;SDS011;1180;51.438;6.978;2022-12-18T03:34:06;5.45;;;4.90;;
2338;SDS011;1180;51.438;6.978;2022-12-18T03:36:38;6.55;;;5.13;;
2338;SDS011;1180;51.438;6.978;2022-12-18T03:39:03;8.13;;;5.57;;
2338;SDS011;1180;51.438;6.978;2022-12-18T03:41:43;7.77;;;5.07;;
2338;SDS011;1180;51.438;6.978;2022-12-18T03:49:30;8.85;;;6.03;;
2338;SDS011;1180;51.438;6.978;2022-12-18T03:52:05;6.20;;;5.38;;
2338;SDS011;1180;51.438;6.978;2022-12-18T03:54:38;6.63;;;4.50;;
2338;SDS011;1180;51.438;6.978;2022-12-18T03:57:13;5.75;;;4.25;;
2338;SDS011;1180;51.438;6.978;2022-12-18T03:59:41;5.30;;;4.53;;
2338;SDS011;1180;51.438;6.978;2022-12-18T04:02:09;6.38;;;5.35;;
2338;SDS011;1180;51.438;6.978;2022-12-18T04:04:35;7.95;;;4.53;;
2338;SDS011;1180;51.438;6.978;2022-12-18T04:07:03;5.90;;;4.43;;
2338;SDS011;1180;51.438;6.978;2022-12-18T04:09:30;6.38;;;5.30;;
2338;SDS011;1180;51.438;6.978;2022-12-18T04:11:57;4.57;;;4.18;;
2338;SDS011;1180;51.438;6.978;2022-12-18T04:14:23;6.63;;;4.00;;
2338;SDS011;1180;51.438;6.978;2022-12-18T04:16:48;8.43;;;5.00;;
2338;SDS011;1180;51.438;6.978;2022-12-18T04:19:14;5.17;;;4.23;;
2338;SDS011;1180;51.438;6.978;2022-12-18T04:21:39;7.80;;;4.40;;
2338;SDS011;1180;51.438;6.978;2022-12-18T04:24:04;4.73;;;3.53;;
2338;SDS011;1180;51.438;6.978;2022-12-18T04:26:30;5.70;;;4.07;;
2338;SDS011;1180;51.438;6.978;2022-12-18T04:28:55;6.67;;;5.53;;
2338;SDS011;1180;51.438;6.978;2022-12-18T04:31:21;6.17;;;3.97;;
2338;SDS011;1180;51.438;6.978;2022-12-18T04:33:46;5.53;;;4.00;;
2338;SDS011;1180;51.438;6.978;2022-12-18T04:36:12;5.13;;;3.30;;
2338;SDS011;1180;51.438;6.978;2022-12-18T04:38:37;8.50;;;4.93;;
2338;SDS011;1180;51.438;6.978;2022-12-18T04:41:03;4.33;;;3.93;;
2338;SDS011;1180;51.438;6.978;2022-12-18T04:43:28;6.90;;;4.03;;
2338;SDS011;1180;51.438;6.978;2022-12-18T04:46:00;5.87;;;4.20;;
2338;SDS011;1180;51.438;6.978;2022-12-18T04:48:29;4.90;;;4.40;;
2338;SDS011;1180;51.438;6.978;2022-12-18T04:50:55;6.47;;;3.90;;
2338;SDS011;1180;51.438;6.978;2022-12-18T04:53:20;5.47;;;4.63;;
2338;SDS011;1180;51.438;6.978;2022-12-18T04:55:45;5.53;;;4.30;;
2338;SDS011;1180;51.438;6.978;2022-12-18T04:58:11;4.73;;;3.13;;
2338;SDS011;1180;51.438;6.978;2022-12-18T05:00:36;4.20;;;3.53;;
2338;SDS011;1180;51.438;6.978;2022-12-18T05:03:01;3.70;;;3.00;;
2338;SDS011;1180;51.438;6.978;2022-12-18T05:05:27;4.73;;;3.80;;
2338;SDS011;1180;51.438;6.978;2022-12-18T05:07:53;4.10;;;3.20;;
2338;SDS011;1180;51.438;6.978;2022-12-18T05:10:18;4.00;;;3.03;;
2338;SDS011;1180;51.438;6.978;2022-12-18T05:12:43;4.97;;;3.33;;
2338;SDS011;1180;51.438;6.978;2022-12-18T05:15:26;4.57;;;3.45;;
2338;SDS011;1180;51.438;6.978;2022-12-18T05:17:55;3.63;;;3.20;;
2338;SDS011;1180;51.438;6.978;2022-12-18T05:20:21;4.47;;;3.05;;
2338;SDS011;1180;51.438;6.978;2022-12-18T05:22:46;4.00;;;3.23;;
2338;SDS011;1180;51.438;6.978;2022-12-18T05:25:12;4.53;;;3.27;;
2338;SDS011;1180;51.438;6.978;2022-12-18T05:27:37;5.83;;;3.40;;
2338;SDS011;1180;51.438;6.978;2022-12-18T05:30:03;4.20;;;3.23;;
2338;SDS011;1180;51.438;6.978;2022-12-18T05:32:28;3.50;;;3.03;;
2338;SDS011;1180;51.438;6.978;2022-12-18T05:34:53;8.00;;;3.40;;
2338;SDS011;1180;51.438;6.978;2022-12-18T05:37:19;5.07;;;3.53;;
2338;SDS011;1180;51.438;6.978;2022-12-18T05:39:45;2.88;;;2.58;;
2338;SDS011;1180;51.438;6.978;2022-12-18T05:42:11;4.90;;;3.67;;
2338;SDS011;1180;51.438;6.978;2022-12-18T05:44:36;5.73;;;3.73;;
2338;SDS011;1180;51.438;6.978;2022-12-18T05:47:01;6.57;;;5.30;;
2338;SDS011;1180;51.438;6.978;2022-12-18T05:49:26;6.07;;;4.90;;
2338;SDS011;1180;51.438;6.978;2022-12-18T05:51:52;4.50;;;3.80;;
2338;SDS011;1180;51.438;6.978;2022-12-18T05:54:18;4.90;;;4.20;;
2338;SDS011;1180;51.438;6.978;2022-12-18T05:56:43;5.27;;;3.70;;
2338;SDS011;1180;51.438;6.978;2022-12-18T05:59:08;5.30;;;3.37;;
2338;SDS011;1180;51.438;6.978;2022-12-18T06:01:34;5.37;;;3.70;;
2338;SDS011;1180;51.438;6.978;2022-12-18T06:04:00;4.70;;;4.10;;
2338;SDS011;1180;51.438;6.978;2022-12-18T06:06:26;3.93;;;3.53;;
2338;SDS011;1180;51.438;6.978;2022-12-18T06:08:53;4.55;;;3.33;;
2338;SDS011;1180;51.438;6.978;2022-12-18T06:11:20;5.63;;;3.78;;
2338;SDS011;1180;51.438;6.978;2022-12-18T06:13:50;4.10;;;3.22;;
2338;SDS011;1180;51.438;6.978;2022-12-18T06:16:17;3.03;;;2.45;;
2338;SDS011;1180;51.438;6.978;2022-12-18T06:18:42;5.57;;;3.90;;
2338;SDS011;1180;51.438;6.978;2022-12-18T06:21:08;3.73;;;2.90;;
2338;SDS011;1180;51.438;6.978;2022-12-18T06:23:33;4.47;;;3.07;;
2338;SDS011;1180;51.438;6.978;2022-12-18T06:25:58;4.37;;;2.53;;
2338;SDS011;1180;51.438;6.978;2022-12-18T06:28:38;4.68;;;3.22;;
2338;SDS011;1180;51.438;6.978;2022-12-18T06:31:04;3.30;;;2.90;;
2338;SDS011;1180;51.438;6.978;2022-12-18T06:33:30;5.15;;;3.28;;
2338;SDS011;1180;51.438;6.978;2022-12-18T06:36:00;4.90;;;3.70;;
2338;SDS011;1180;51.438;6.978;2022-12-18T06:38:36;2.85;;;2.65;;
2338;SDS011;1180;51.438;6.978;2022-12-18T06:41:09;5.20;;;3.70;;
2338;SDS011;1180;51.438;6.978;2022-12-18T06:43:39;5.43;;;3.03;;
2338;SDS011;1180;51.438;6.978;2022-12-18T06:46:04;3.50;;;2.83;;
2338;SDS011;1180;51.438;6.978;2022-12-18T06:48:30;3.80;;;2.78;;
2338;SDS011;1180;51.438;6.978;2022-12-18T06:50:56;4.75;;;3.05;;
2338;SDS011;1180;51.438;6.978;2022-12-18T06:53:22;4.60;;;3.27;;
2338;SDS011;1180;51.438;6.978;2022-12-18T06:55:47;4.90;;;3.10;;
2338;SDS011;1180;51.438;6.978;2022-12-18T06:58:13;6.83;;;3.50;;
2338;SDS011;1180;51.438;6.978;2022-12-18T07:00:38;4.93;;;3.37;;
2338;SDS011;1180;51.438;6.978;2022-12-18T07:03:04;3.10;;;2.60;;
2338;SDS011;1180;51.438;6.978;2022-12-18T07:05:29;5.30;;;3.77;;
2338;SDS011;1180;51.438;6.978;2022-12-18T07:07:54;5.20;;;3.30;;
2338;SDS011;1180;51.438;6.978;2022-12-18T07:10:20;8.13;;;4.50;;
2338;SDS011;1180;51.438;6.978;2022-12-18T07:12:45;4.27;;;3.43;;
2338;SDS011;1180;51.438;6.978;2022-12-18T07:15:11;9.93;;;4.50;;
2338;SDS011;1180;51.438;6.978;2022-12-18T07:17:36;7.70;;;4.13;;
2338;SDS011;1180;51.438;6.978;2022-12-18T07:20:02;4.90;;;3.20;;
2338;SDS011;1180;51.438;6.978;2022-12-18T07:25:20;3.10;;;2.80;;
2338;SDS011;1180;51.438;6.978;2022-12-18T07:27:46;3.73;;;2.30;;
2338;SDS011;1180;51.438;6.978;2022-12-18T07:30:11;3.73;;;2.70;;
2338;SDS011;1180;51.438;6.978;2022-12-18T07:32:36;3.17;;;2.17;;
2338;SDS011;1180;51.438;6.978;2022-12-18T07:35:02;7.17;;;3.30;;
2338;SDS011;1180;51.438;6.978;2022-12-18T07:37:27;5.43;;;3.13;;
2338;SDS011;1180;51.438;6.978;2022-12-18T07:39:53;4.53;;;3.00;;
2338;SDS011;1180;51.438;6.978;2022-12-18T07:42:18;3.47;;;3.10;;
2338;SDS011;1180;51.438;6.978;2022-12-18T07:44:55;3.00;;;2.22;;
2338;SDS011;1180;51.438;6.978;2022-12-18T07:47:21;3.50;;;2.77;;
2338;SDS011;1180;51.438;6.978;2022-12-18T07:49:47;3.70;;;2.40;;
2338;SDS011;1180;51.438;6.978;2022-12-18T07:52:12;5.20;;;4.00;;
2338;SDS011;1180;51.438;6.978;2022-12-18T07:54:37;4.00;;;3.00;;
2338;SDS011;1180;51.438;6.978;2022-12-18T07:57:03;4.82;;;3.25;;
2338;SDS011;1180;51.438;6.978;2022-12-18T07:59:30;4.03;;;3.13;;
2338;SDS011;1180;51.438;6.978;2022-12-18T08:01:55;3.73;;;2.63;;
2338;SDS011;1180;51.438;6.978;2022-12-18T08:04:21;4.67;;;3.47;;
2338;SDS011;1180;51.438;6.978;2022-12-18T08:06:46;6.20;;;4.23;;
2338;SDS011;1180;51.438;6.978;2022-12-18T08:09:11;3.50;;;2.70;;
2338;SDS011;1180;51.438;6.978;2022-12-18T08:11:37;7.07;;;3.57;;
2338;SDS011;1180;51.438;6.978;2022-12-18T08:14:02;3.83;;;3.40;;
2338;SDS011;1180;51.438;6.978;2022-12-18T08:16:28;5.20;;;3.00;;
2338;SDS011;1180;51.438;6.978;2022-12-18T08:18:53;5.37;;;3.90;;
2338;SDS011;1180;51.438;6.978;2022-12-18T08:21:21;4.07;;;3.63;;
2338;SDS011;1180;51.438;6.978;2022-12-18T08:23:52;3.67;;;2.97;;
2338;SDS011;1180;51.438;6.978;2022-12-18T08:26:18;3.42;;;3.00;;
2338;SDS011;1180;51.438;6.978;2022-12-18T08:28:44;3.33;;;3.03;;
2338;SDS011;1180;51.438;6.978;2022-12-18T08:31:10;3.17;;;2.40;;
2338;SDS011;1180;51.438;6.978;2022-12-18T08:33:36;3.60;;;2.63;;
2338;SDS011;1180;51.438;6.978;2022-12-18T08:36:03;5.10;;;3.30;;
2338;SDS011;1180;51.438;6.978;2022-12-18T08:38:29;4.53;;;3.00;;
2338;SDS011;1180;51.438;6.978;2022-12-18T08:41:07;4.20;;;2.87;;
2338;SDS011;1180;51.438;6.978;2022-12-18T08:43:35;3.88;;;2.53;;
2338;SDS011;1180;51.438;6.978;2022-12-18T08:46:19;3.55;;;2.90;;
2338;SDS011;1180;51.438;6.978;2022-12-18T08:48:46;4.38;;;3.45;;
2338;SDS011;1180;51.438;6.978;2022-12-18T08:51:11;4.70;;;3.20;;
2338;SDS011;1180;51.438;6.978;2022-12-18T08:53:37;3.77;;;2.97;;
2338;SDS011;1180;51.438;6.978;2022-12-18T08:56:03;5.50;;;3.05;;
2338;SDS011;1180;51.438;6.978;2022-12-18T08:58:30;5.25;;;3.15;;
2338;SDS011;1180;51.438;6.978;2022-12-18T09:01:05;4.60;;;3.00;;
2338;SDS011;1180;51.438;6.978;2022-12-18T09:03:35;3.25;;;2.85;;
2338;SDS011;1180;51.438;6.978;2022-12-18T09:06:01;4.32;;;2.70;;
2338;SDS011;1180;51.438;6.978;2022-12-18T09:08:26;3.90;;;2.63;;
2338;SDS011;1180;51.438;6.978;2022-12-18T09:10:52;3.25;;;2.70;;
2338;SDS011;1180;51.438;6.978;2022-12-18T09:13:18;3.20;;;2.70;;
2338;SDS011;1180;51.438;6.978;2022-12-18T09:15:44;5.03;;;3.17;;
2338;SDS011;1180;51.438;6.978;2022-12-18T09:18:12;3.80;;;2.90;;
2338;SDS011;1180;51.438;6.978;2022-12-18T09:20:38;3.90;;;2.95;;
2338;SDS011;1180;51.438;6.978;2022-12-18T09:23:04;5.30;;;2.80;;
2338;SDS011;1180;51.438;6.978;2022-12-18T09:25:30;4.60;;;3.47;;
2338;SDS011;1180;51.438;6.978;2022-12-18T09:28:13;9.20;;;3.30;;
2338;SDS011;1180;51.438;6.978;2022-12-18T09:30:41;5.00;;;3.35;;
2338;SDS011;1180;51.438;6.978;2022-12-18T09:33:09;2.97;;;2.45;;
2338;SDS011;1180;51.438;6.978;2022-12-18T09:35:37;3.67;;;2.30;;
2338;SDS011;1180;51.438;6.978;2022-12-18T09:38:03;5.53;;;3.35;;
2338;SDS011;1180;51.438;6.978;2022-12-18T09:40:32;3.28;;;2.38;;
2338;SDS011;1180;51.438;6.978;2022-12-18T09:43:04;3.30;;;2.47;;
2338;SDS011;1180;51.438;6.978;2022-12-18T09:45:33;3.85;;;2.67;;
2338;SDS011;1180;51.438;6.978;2022-12-18T09:48:05;3.80;;;2.85;;
2338;SDS011;1180;51.438;6.978;2022-12-18T09:50:40;6.63;;;2.30;;
2338;SDS011;1180;51.438;6.978;2022-12-18T09:53:11;3.67;;;2.10;;
2338;SDS011;1180;51.438;6.978;2022-12-18T09:55:42;3.50;;;2.80;;
2338;SDS011;1180;51.438;6.978;2022-12-18T10:00:35;4.20;;;2.90;;
2338;SDS011;1180;51.438;6.978;2022-12-18T10:03:03;2.23;;;2.03;;
2338;SDS011;1180;51.438;6.978;2022-12-18T10:08:07;3.80;;;2.85;;
2338;SDS011;1180;51.438;6.978;2022-12-18T10:10:50;3.90;;;2.88;;
2338;SDS011;1180;51.438;6.978;2022-12-18T10:21:28;3.88;;;2.92;;
2338;SDS011;1180;51.438;6.978;2022-12-18T10:26:31;3.13;;;2.42;;
2338;SDS011;1180;51.438;6.978;2022-12-18T10:28:57;3.38;;;2.75;;
2338;SDS011;1180;51.438;6.978;2022-12-18T10:31:24;3.53;;;2.60;;
2338;SDS011;1180;51.438;6.978;2022-12-18T10:33:50;6.33;;;3.17;;
2338;SDS011;1180;51.438;6.978;2022-12-18T10:36:15;5.80;;;3.40;;
2338;SDS011;1180;51.438;6.978;2022-12-18T10:38:41;5.43;;;2.63;;
2338;SDS011;1180;51.438;6.978;2022-12-18T10:43:47;4.47;;;2.90;;
2338;SDS011;1180;51.438;6.978;2022-12-18T10:46:16;3.50;;;2.83;;
2338;SDS011;1180;51.438;6.978;2022-12-18T10:51:20;2.97;;;2.50;;
2338;SDS011;1180;51.438;6.978;2022-12-18T10:54:37;3.60;;;3.08;;
2338;SDS011;1180;51.438;6.978;2022-12-18T10:56:46;4.95;;;2.95;;
2338;SDS011;1180;51.438;6.978;2022-12-18T10:59:13;3.63;;;2.70;;
2338;SDS011;1180;51.438;6.978;2022-12-18T11:01:47;3.90;;;2.60;;
2338;SDS011;1180;51.438;6.978;2022-12-18T11:04:16;5.25;;;3.60;;
2338;SDS011;1180;51.438;6.978;2022-12-18T11:06:53;5.57;;;3.38;;
2338;SDS011;1180;51.438;6.978;2022-12-18T11:09:27;4.97;;;3.45;;
2338;SDS011;1180;51.438;6.978;2022-12-18T11:11:56;5.57;;;3.30;;
2338;SDS011;1180;51.438;6.978;2022-12-18T11:14:28;4.30;;;3.85;;
2338;SDS011;1180;51.438;6.978;2022-12-18T11:16:56;6.95;;;2.90;;
2338;SDS011;1180;51.438;6.978;2022-12-18T11:19:37;5.30;;;3.70;;
2338;SDS011;1180;51.438;6.978;2022-12-18T11:22:20;5.45;;;3.33;;
2338;SDS011;1180;51.438;6.978;2022-12-18T11:27:26;3.95;;;3.55;;
2338;SDS011;1180;51.438;6.978;2022-12-18T11:29:53;2.90;;;2.40;;
2338;SDS011;1180;51.438;6.978;2022-12-18T11:32:34;7.40;;;5.15;;
2338;SDS011;1180;51.438;6.978;2022-12-18T11:37:58;4.70;;;3.38;;
2338;SDS011;1180;51.438;6.978;2022-12-18T11:40:38;6.10;;;3.65;;
2338;SDS011;1180;51.438;6.978;2022-12-18T11:45:43;4.13;;;3.05;;
2338;SDS011;1180;51.438;6.978;2022-12-18T11:50:49;5.22;;;3.15;;
2338;SDS011;1180;51.438;6.978;2022-12-18T11:53:17;3.92;;;2.83;;
2338;SDS011;1180;51.438;6.978;2022-12-18T11:56:04;6.78;;;4.60;;
2338;SDS011;1180;51.438;6.978;2022-12-18T11:58:43;22.73;;;12.02;;
2338;SDS011;1180;51.438;6.978;2022-12-18T12:01:32;43.20;;;26.10;;
2338;SDS011;1180;51.438;6.978;2022-12-18T12:04:18;26.35;;;14.00;;
2338;SDS011;1180;51.438;6.978;2022-12-18T12:10:24;11.80;;;7.77;;
2338;SDS011;1180;51.438;6.978;2022-12-18T12:23:56;9.93;;;6.63;;
2338;SDS011;1180;51.438;6.978;2022-12-18T12:39:18;7.97;;;5.10;;
2338;SDS011;1180;51.438;6.978;2022-12-18T12:41:48;7.80;;;5.13;;
2338;SDS011;1180;51.438;6.978;2022-12-18T12:44:38;6.38;;;4.45;;
2338;SDS011;1180;51.438;6.978;2022-12-18T12:47:32;5.75;;;4.45;;
2338;SDS011;1180;51.438;6.978;2022-12-18T12:49:58;4.57;;;4.05;;
2338;SDS011;1180;51.438;6.978;2022-12-18T12:52:34;5.47;;;4.15;;
2338;SDS011;1180;51.438;6.978;2022-12-18T12:55:04;6.97;;;4.80;;
2338;SDS011;1180;51.438;6.978;2022-12-18T12:57:36;5.47;;;3.95;;
2338;SDS011;1180;51.438;6.978;2022-12-18T13:00:11;6.25;;;5.10;;
2338;SDS011;1180;51.438;6.978;2022-12-18T13:02:44;5.57;;;4.00;;
2338;SDS011;1180;51.438;6.978;2022-12-18T13:05:24;7.22;;;5.50;;
2338;SDS011;1180;51.438;6.978;2022-12-18T13:10:41;6.20;;;4.43;;
2338;SDS011;1180;51.438;6.978;2022-12-18T13:13:08;6.95;;;5.03;;
2338;SDS011;1180;51.438;6.978;2022-12-18T13:15:39;7.07;;;5.35;;
2338;SDS011;1180;51.438;6.978;2022-12-18T13:20:35;5.75;;;5.13;;
2338;SDS011;1180;51.438;6.978;2022-12-18T13:25:47;6.68;;;5.82;;
2338;SDS011;1180;51.438;6.978;2022-12-18T13:28:14;7.00;;;5.67;;
2338;SDS011;1180;51.438;6.978;2022-12-18T13:40:58;8.00;;;5.47;;
2338;SDS011;1180;51.438;6.978;2022-12-18T13:45:59;9.27;;;6.22;;
2338;SDS011;1180;51.438;6.978;2022-12-18T13:48:26;7.53;;;5.20;;
2338;SDS011;1180;51.438;6.978;2022-12-18T13:50:58;9.40;;;6.22;;
2338;SDS011;1180;51.438;6.978;2022-12-18T13:53:32;8.00;;;5.95;;
2338;SDS011;1180;51.438;6.978;2022-12-18T13:56:02;8.50;;;5.03;;
2338;SDS011;1180;51.438;6.978;2022-12-18T13:58:28;10.60;;;5.70;;
2338;SDS011;1180;51.438;6.978;2022-12-18T14:00:53;9.00;;;5.73;;
2338;SDS011;1180;51.438;6.978;2022-12-18T14:03:23;6.50;;;5.30;;
2338;SDS011;1180;51.438;6.978;2022-12-18T14:05:58;9.15;;;5.78;;
2338;SDS011;1180;51.438;6.978;2022-12-18T14:08:27;8.85;;;6.30;;
2338;SDS011;1180;51.438;6.978;2022-12-18T14:10:58;10.30;;;6.75;;
2338;SDS011;1180;51.438;6.978;2022-12-18T14:13:36;11.55;;;7.53;;
2338;SDS011;1180;51.438;6.978;2022-12-18T14:16:06;11.70;;;6.97;;
2338;SDS011;1180;51.438;6.978;2022-12-18T14:21:23;13.13;;;7.13;;
2338;SDS011;1180;51.438;6.978;2022-12-18T14:24:12;12.52;;;6.68;;
2338;SDS011;1180;51.438;6.978;2022-12-18T14:26:40;10.77;;;6.80;;
2338;SDS011;1180;51.438;6.978;2022-12-18T14:32:03;12.57;;;7.53;;
2338;SDS011;1180;51.438;6.978;2022-12-18T14:34:31;10.23;;;7.45;;
2338;SDS011;1180;51.438;6.978;2022-12-18T14:36:57;8.37;;;6.97;;
2338;SDS011;1180;51.438;6.978;2022-12-18T14:39:22;11.30;;;7.63;;
2338;SDS011;1180;51.438;6.978;2022-12-18T14:41:50;9.35;;;6.95;;
2338;SDS011;1180;51.438;6.978;2022-12-18T14:44:15;10.00;;;7.53;;
2338;SDS011;1180;51.438;6.978;2022-12-18T14:49:24;11.07;;;7.97;;
2338;SDS011;1180;51.438;6.978;2022-12-18T14:51:56;9.27;;;7.68;;
2338;SDS011;1180;51.438;6.978;2022-12-18T14:54:28;11.05;;;7.88;;
2338;SDS011;1180;51.438;6.978;2022-12-18T14:59:51;11.02;;;7.55;;
2338;SDS011;1180;51.438;6.978;2022-12-18T15:04:47;12.20;;;8.52;;
2338;SDS011;1180;51.438;6.978;2022-12-18T15:07:23;12.13;;;8.40;;
2338;SDS011;1180;51.438;6.978;2022-12-18T15:20:33;10.27;;;8.60;;
2338;SDS011;1180;51.438;6.978;2022-12-18T15:23:04;10.65;;;8.25;;
2338;SDS011;1180;51.438;6.978;2022-12-18T15:25:34;11.83;;;7.80;;
2338;SDS011;1180;51.438;6.978;2022-12-18T15:28:02;11.27;;;7.50;;
2338;SDS011;1180;51.438;6.978;2022-12-18T15:30:28;13.13;;;9.50;;
2338;SDS011;1180;51.438;6.978;2022-12-18T15:33:16;14.57;;;8.10;;
2338;SDS011;1180;51.438;6.978;2022-12-18T15:35:55;15.75;;;8.82;;
2338;SDS011;1180;51.438;6.978;2022-12-18T15:38:25;12.35;;;8.35;;
2338;SDS011;1180;51.438;6.978;2022-12-18T15:40:51;16.13;;;11.10;;
2338;SDS011;1180;51.438;6.978;2022-12-18T15:43:19;12.13;;;8.75;;
2338;SDS011;1180;51.438;6.978;2022-12-18T15:46:20;14.52;;;8.90;;
2338;SDS011;1180;51.438;6.978;2022-12-18T15:48:49;15.07;;;9.85;;
2338;SDS011;1180;51.438;6.978;2022-12-18T15:54:03;14.23;;;9.75;;
2338;SDS011;1180;51.438;6.978;2022-12-18T15:56:31;14.65;;;9.23;;
2338;SDS011;1180;51.438;6.978;2022-12-18T15:59:17;13.52;;;9.30;;
2338;SDS011;1180;51.438;6.978;2022-12-18T16:01:44;16.38;;;10.00;;
2338;SDS011;1180;51.438;6.978;2022-12-18T16:04:12;15.63;;;10.32;;
2338;SDS011;1180;51.438;6.978;2022-12-18T16:06:40;14.80;;;9.30;;
2338;SDS011;1180;51.438;6.978;2022-12-18T16:09:06;13.17;;;9.43;;
2338;SDS011;1180;51.438;6.978;2022-12-18T16:11:32;11.50;;;8.83;;
2338;SDS011;1180;51.438;6.978;2022-12-18T16:16:40;14.95;;;11.68;;
2338;SDS011;1180;51.438;6.978;2022-12-18T16:19:06;14.48;;;9.55;;
2338;SDS011;1180;51.438;6.978;2022-12-18T16:21:31;13.40;;;9.83;;
2338;SDS011;1180;51.438;6.978;2022-12-18T16:23:57;13.43;;;9.50;;
2338;SDS011;1180;51.438;6.978;2022-12-18T16:26:22;19.87;;;10.60;;
2338;SDS011;1180;51.438;6.978;2022-12-18T16:28:48;16.33;;;11.17;;
2338;SDS011;1180;51.438;6.978;2022-12-18T16:31:13;13.87;;;10.33;;
2338;SDS011;1180;51.438;6.978;2022-12-18T16:33:39;15.50;;;10.93;;
2338;SDS011;1180;51.438;6.978;2022-12-18T16:36:04;18.00;;;12.47;;
2338;SDS011;1180;51.438;6.978;2022-12-18T16:38:33;18.20;;;10.90;;
2338;SDS011;1180;51.438;6.978;2022-12-18T16:40:58;17.37;;;11.57;;
2338;SDS011;1180;51.438;6.978;2022-12-18T16:43:42;16.83;;;11.27;;
2338;SDS011;1180;51.438;6.978;2022-12-18T16:46:07;16.17;;;11.53;;
2338;SDS011;1180;51.438;6.978;2022-12-18T16:48:33;16.30;;;11.47;;
2338;SDS011;1180;51.438;6.978;2022-12-18T16:51:03;18.10;;;11.80;;
2338;SDS011;1180;51.438;6.978;2022-12-18T16:53:32;17.85;;;10.45;;
2338;SDS011;1180;51.438;6.978;2022-12-18T16:55:58;20.15;;;12.30;;
2338;SDS011;1180;51.438;6.978;2022-12-18T16:58:23;20.03;;;12.20;;
2338;SDS011;1180;51.438;6.978;2022-12-18T17:00:48;17.90;;;11.93;;
2338;SDS011;1180;51.438;6.978;2022-12-18T17:03:14;15.90;;;11.83;;
2338;SDS011;1180;51.438;6.978;2022-12-18T17:05:39;14.10;;;10.93;;
2338;SDS011;1180;51.438;6.978;2022-12-18T17:08:04;17.53;;;11.90;;
2338;SDS011;1180;51.438;6.978;2022-12-18T17:10:30;19.80;;;12.47;;
2338;SDS011;1180;51.438;6.978;2022-12-18T17:12:56;19.03;;;12.70;;
2338;SDS011;1180;51.438;6.978;2022-12-18T17:15:21;14.97;;;11.27;;
2338;SDS011;1180;51.438;6.978;2022-12-18T17:17:47;16.67;;;11.63;;
2338;SDS011;1180;51.438;6.978;2022-12-18T17:20:13;20.23;;;12.27;;
2338;SDS011;1180;51.438;6.978;2022-12-18T17:22:38;23.00;;;13.20;;
2338;SDS011;1180;51.438;6.978;2022-12-18T17:25:05;18.73;;;12.65;;
2338;SDS011;1180;51.438;6.978;2022-12-18T17:27:30;19.13;;;12.90;;
2338;SDS011;1180;51.438;6.978;2022-12-18T17:29:56;20.23;;;13.03;;
2338;SDS011;1180;51.438;6.978;2022-12-18T17:32:21;24.87;;;14.30;;
2338;SDS011;1180;51.438;6.978;2022-12-18T17:34:46;16.70;;;12.80;;
2338;SDS011;1180;51.438;6.978;2022-12-18T17:37:12;18.67;;;12.17;;
2338;SDS011;1180;51.438;6.978;2022-12-18T17:39:37;17.53;;;12.43;;
2338;SDS011;1180;51.438;6.978;2022-12-18T17:42:03;18.70;;;13.00;;
2338;SDS011;1180;51.438;6.978;2022-12-18T17:44:28;20.37;;;13.97;;
2338;SDS011;1180;51.438;6.978;2022-12-18T17:46:54;19.40;;;12.60;;